Biggsville, Illinois
Current Conditions -  °F | °C
As of 6:53 AM on Saturday 25 Oct 2014 (Local Time) from KBRL Reporting Station
Moderate Fog Moderate Fog  
Wind Chill: 50°   Ceiling: 100
Heat Index: 50°   Visibility: 0.25mi
Dew Point: 50°   Wind: 5mph
Humidity: 100%   Direction: 210°SSW
Pressure: 29.97"   Gusts: NA
Location:  40.85°N, 90.86°W
Report Text: KBRL 251153Z AUTO 21004KT 1/4SM FG VV001 10/10 A2997 RMK AO2 SLP150 T01000100 10139 20094 52005
Loading
Personal Weather Stations






























Interactive Weather Map
Tropical Storm Tracking
New forecast layout! Learn more

10-Day Weather Forecast

Advertisements
Track Severe Weather on mobile